Time;durP1;ratioP1;P1;durP2;ratioP2;P2;SDS_P1;SDS_P2;PMS_P1;PMS_P2;Temp;Humidity;BMP_temperature;BMP_pressure;BME280_temperature;BME280_humidity;BME280_pressure;Samples;Min_cycle;Max_cycle;Signal;HPM_P1;HPM_P2
2022/04/30 00:00:30;;;;;;;;;;;;;;;20.99;38.27;102935.41;7287368;19;152805;-57
2022/04/30 00:02:58;;;;;;;;;;;;;;;20.98;38.35;102933.75;7283652;19;151626;-55
2022/04/30 00:05:25;;;;;;;;;;;;;;;20.97;38.51;102932.03;7282141;19;153903;-57
2022/04/30 00:07:52;;;;;;;;;;;;;;;20.98;38.64;102939.38;7278384;19;153454;-57
2022/04/30 00:10:18;;;;;;;;;;;;;;;20.95;38.49;102931.44;7283697;19;151639;-56
2022/04/30 00:12:45;;;;;;;;;;;;;;;20.95;38.38;102943.53;7282111;19;153253;-56
2022/04/30 00:15:12;;;;;;;;;;;;;;;20.95;38.51;102935.09;7279022;19;154055;-57
2022/04/30 00:17:39;;;;;;;;;;;;;;;20.95;38.71;102942.69;7280794;19;151954;-54
2022/04/30 00:20:07;;;;;;;;;;;;;;;20.95;38.57;102934.25;7282121;19;153133;-57
2022/04/30 00:22:35;;;;;;;;;;;;;;;20.92;38.42;102940.41;7288453;19;153700;-56
2022/04/30 00:25:02;;;;;;;;;;;;;;;20.92;39.03;102944.06;7280371;19;153441;-56
2022/04/30 00:27:29;;;;;;;;;;;;;;;20.91;38.88;102941.50;7281321;19;153253;-56
2022/04/30 00:29:55;;;;;;;;;;;;;;;20.89;38.71;102940.94;7280525;19;151888;-57
2022/04/30 00:32:22;;;;;;;;;;;;;;;20.84;38.96;102941.72;7282712;19;152847;-56
2022/04/30 00:34:49;;;;;;;;;;;;;;;20.84;38.94;102936.97;7281231;19;153481;-57
2022/04/30 00:37:16;;;;;;;;;;;;;;;20.81;39.12;102937.47;7279776;19;151833;-55
2022/04/30 00:39:43;;;;;;;;;;;;;;;20.81;39.20;102928.19;7279950;19;153340;-57
2022/04/30 00:42:11;;;;;;;;;;;;;;;20.77;39.22;102930.66;7280471;19;154548;-55
2022/04/30 00:44:38;;;;;;;;;;;;;;;20.79;38.94;102933.22;7286202;19;151840;-55
2022/04/30 00:47:05;;;;;;;;;;;;;;;20.79;39.33;102924.81;7281446;19;154452;-56
2022/04/30 00:49:32;;;;;;;;;;;;;;;20.78;38.94;102932.38;7282116;19;152182;-57
2022/04/30 00:52:02;;;;;;;;;;;;;;;20.73;39.24;102925.84;7279411;19;152501;-55
2022/04/30 00:54:33;;;;;;;;;;;;;;;20.72;39.37;102922.19;7279448;19;154175;-56
2022/04/30 00:57:01;;;;;;;;;;;;;;;20.70;39.41;102923.56;7282285;19;151777;-57
2022/04/30 00:59:30;;;;;;;;;;;;;;;20.68;39.01;102921.00;7279197;19;153373;-56
2022/04/30 01:01:59;;;;;;;;;;;;;;;20.68;39.42;102915.38;7278984;19;154120;-56
2022/04/30 01:04:26;;;;;;;;;;;;;;;20.66;39.17;102916.78;7280132;19;152024;-57
2022/04/30 01:06:57;;;;;;;;;;;;;;;20.65;39.54;102915.06;7287691;19;152557;-57
2022/04/30 01:09:26;;;;;;;;;;;;;;;20.62;39.38;102909.97;7280566;19;152232;-57
2022/04/30 01:11:55;;;;;;;;;;;;;;;20.59;39.51;102905.72;7280831;19;153689;-56
2022/04/30 01:14:25;;;;;;;;;;;;;;;20.59;39.67;102904.88;7279059;19;154102;-57
2022/04/30 01:16:52;;;;;;;;;;;;;;;20.58;39.65;102909.63;7278938;19;152008;-56
2022/04/30 01:19:20;;;;;;;;;;;;;;;20.56;40.05;102906.25;7277674;19;153646;-55
2022/04/30 01:21:49;;;;;;;;;;;;;;;20.54;39.69;102908.47;7276483;19;153987;-54
2022/04/30 01:24:21;;;;;;;;;;;;;;;20.55;40.08;102909.31;7281260;19;151844;-55
2022/04/30 01:26:49;;;;;;;;;;;;;;;20.55;40.00;102904.53;7280414;19;151904;-54
2022/04/30 01:29:17;;;;;;;;;;;;;;;20.51;39.80;102909.00;7284748;19;154413;-55
2022/04/30 01:39:52;;;;;;;;;;;;;;;20.47;40.25;102916.25;7279899;19;152776;-56
2022/04/30 01:42:21;;;;;;;;;;;;;;;20.46;40.07;102910.88;7279967;19;153923;-55
2022/04/30 01:44:48;;;;;;;;;;;;;;;20.45;40.36;102904.41;7278761;19;152275;-56
2022/04/30 01:47:15;;;;;;;;;;;;;;;20.44;40.21;102902.72;7279952;19;152639;-55
2022/04/30 01:49:42;;;;;;;;;;;;;;;20.42;40.05;102891.75;7276703;19;153762;-55
2022/04/30 01:52:09;;;;;;;;;;;;;;;20.41;39.97;102894.81;7286870;19;151812;-55
2022/04/30 01:54:36;;;;;;;;;;;;;;;20.39;40.04;102892.28;7278466;19;153743;-56
2022/04/30 01:57:03;;;;;;;;;;;;;;;20.38;40.17;102893.38;7278866;19;151559;-56
2022/04/30 01:59:30;;;;;;;;;;;;;;;20.37;40.41;102894.47;7275400;19;153672;-56
2022/04/30 02:01:57;;;;;;;;;;;;;;;20.37;40.15;102890.81;7279084;19;153834;-56
2022/04/30 02:04:24;;;;;;;;;;;;;;;20.36;40.26;102889.13;7278911;19;151904;-56
2022/04/30 02:06:51;;;;;;;;;;;;;;;20.35;40.27;102895.88;7286297;19;153522;-56
2022/04/30 02:09:18;;;;;;;;;;;;;;;20.33;40.08;102886.84;7283402;19;153980;-55
2022/04/30 02:11:45;;;;;;;;;;;;;;;20.32;40.35;102885.13;7292412;19;151717;-54
2022/04/30 02:14:13;;;;;;;;;;;;;;;20.30;40.14;102878.94;7279674;19;152092;-56
2022/04/30 02:16:42;;;;;;;;;;;;;;;20.30;40.49;102876.16;7284266;19;151776;-56
2022/04/30 02:19:08;;;;;;;;;;;;;;;20.28;40.39;102876.34;7283348;19;152876;-56
2022/04/30 02:21:36;;;;;;;;;;;;;;;20.28;40.27;102876.34;7283107;19;153866;-55
2022/04/30 02:24:03;;;;;;;;;;;;;;;20.25;40.48;102876.88;7283798;19;152144;-55
2022/04/30 02:26:29;;;;;;;;;;;;;;;20.23;40.55;102870.69;7284162;19;152812;-57
2022/04/30 02:28:57;;;;;;;;;;;;;;;20.22;40.16;102865.31;7284367;19;153778;-55
2022/04/30 02:31:25;;;;;;;;;;;;;;;20.22;40.57;102862.50;7283308;19;151750;-57
2022/04/30 02:33:55;;;;;;;;;;;;;;;20.21;40.17;102863.63;7290647;19;153706;-55
2022/04/30 02:36:26;;;;;;;;;;;;;;;20.20;40.34;102873.16;7283009;19;151781;-56
2022/04/30 02:38:54;;;;;;;;;;;;;;;20.19;40.64;102858.28;7284344;19;152421;-56
2022/04/30 02:41:21;;;;;;;;;;;;;;;20.20;40.20;102859.13;7282773;19;153941;-55
2022/04/30 02:43:50;;;;;;;;;;;;;;;20.17;40.22;102868.06;7285826;19;151532;-55
2022/04/30 02:46:17;;;;;;;;;;;;;;;20.16;40.29;102855.13;7284667;19;152647;-55
2022/04/30 02:48:44;;;;;;;;;;;;;;;20.16;40.59;102866.38;7281945;19;152735;-55
2022/04/30 02:51:11;;;;;;;;;;;;;;;20.15;40.20;102865.50;7286957;19;151806;-55
2022/04/30 02:53:38;;;;;;;;;;;;;;;20.13;40.74;102862.09;7282931;19;151920;-55
2022/04/30 02:56:05;;;;;;;;;;;;;;;20.12;40.76;102856.78;7288573;19;153949;-55
2022/04/30 03:01:09;;;;;;;;;;;;;;;20.09;40.36;102852.50;7282077;19;154082;-56
2022/04/30 03:03:35;;;;;;;;;;;;;;;20.10;40.24;102847.75;7282848;19;151727;-57
2022/04/30 03:06:02;;;;;;;;;;;;;;;20.09;40.67;102852.50;7285928;19;152962;-56
2022/04/30 03:08:29;;;;;;;;;;;;;;;20.07;40.73;102845.47;7282924;19;153828;-57
2022/04/30 03:10:57;;;;;;;;;;;;;;;20.04;40.54;102846.81;7284924;19;151520;-55
2022/04/30 03:13:24;;;;;;;;;;;;;;;20.04;40.51;102846.81;7281660;19;153521;-56
2022/04/30 03:15:52;;;;;;;;;;;;;;;20.04;40.41;102835.59;7276368;19;153118;-56
2022/04/30 03:21:55;;;;;;;;;;;;;;;20.01;40.62;102850.16;7282671;19;153224;-56
2022/04/30 03:23:43;;;;;;;;;;;;;;;19.98;40.61;102847.88;7282625;19;151967;-54
2022/04/30 03:26:11;;;;;;;;;;;;;;;19.99;40.79;102847.59;7284298;19;152581;-56
2022/04/30 03:28:39;;;;;;;;;;;;;;;19.95;40.69;102840.81;7284249;19;153976;-55
2022/04/30 03:31:06;;;;;;;;;;;;;;;19.97;40.71;102846.16;7281998;19;152139;-55
2022/04/30 03:33:33;;;;;;;;;;;;;;;19.96;40.63;102842.50;7282596;19;153381;-55
2022/04/30 03:36:00;;;;;;;;;;;;;;;19.94;40.96;102852.31;7282628;19;154078;-55
2022/04/30 03:38:27;;;;;;;;;;;;;;;19.92;40.67;102849.75;7280744;19;152183;-56
2022/04/30 03:40:54;;;;;;;;;;;;;;;19.92;40.82;102855.38;7287919;19;152764;-55
2022/04/30 03:43:20;;;;;;;;;;;;;;;19.90;40.87;102854.75;7281795;19;152123;-54
2022/04/30 03:45:49;;;;;;;;;;;;;;;19.88;40.93;102844.91;7283575;19;152959;-56
2022/04/30 03:48:16;;;;;;;;;;;;;;;19.87;40.66;102852.47;7280518;19;153398;-55
2022/04/30 03:50:42;;;;;;;;;;;;;;;19.87;40.81;102852.47;7283286;19;151739;-56
2022/04/30 03:53:10;;;;;;;;;;;;;;;19.86;41.08;102856.38;7281283;19;152036;-55
2022/04/30 03:55:37;;;;;;;;;;;;;;;19.85;41.11;102848.25;7282134;19;153801;-55
2022/04/30 03:58:05;;;;;;;;;;;;;;;19.83;41.23;102854.09;7283991;19;151488;-55
2022/04/30 04:00:32;;;;;;;;;;;;;;;19.84;41.11;102852.16;7280962;19;153384;-56
2022/04/30 04:02:59;;;;;;;;;;;;;;;19.81;41.25;102849.84;7288126;19;151675;-55
2022/04/30 04:05:26;;;;;;;;;;;;;;;19.81;41.13;102849.84;7283296;19;153175;-56
2022/04/30 04:07:54;;;;;;;;;;;;;;;19.78;41.25;102848.41;7279475;19;154039;-56
2022/04/30 04:10:21;;;;;;;;;;;;;;;19.77;40.98;102851.47;7281161;19;151647;-56
2022/04/30 04:12:48;;;;;;;;;;;;;;;19.77;40.86;102859.88;7283685;19;153200;-55
2022/04/30 04:17:51;;;;;;;;;;;;;;;19.73;41.18;102850.28;7284485;19;152985;-56
2022/04/30 04:20:18;;;;;;;;;;;;;;;19.72;41.24;102849.44;7282004;19;154459;-56
2022/04/30 04:22:51;;;;;;;;;;;;;;;19.73;41.24;102853.94;7287680;19;153863;-55
2022/04/30 04:27:55;;;;;;;;;;;;;;;19.71;41.10;102856.16;7279265;19;153998;-55
2022/04/30 04:30:23;;;;;;;;;;;;;;;19.71;41.54;102855.31;7281032;19;152213;-55
2022/04/30 04:32:50;;;;;;;;;;;;;;;19.70;41.08;102856.41;7283153;19;153318;-56
2022/04/30 04:35:16;;;;;;;;;;;;;;;19.70;41.51;102853.59;7283169;19;153900;-56
2022/04/30 04:37:44;;;;;;;;;;;;;;;19.69;41.50;102858.38;7280350;19;152249;-55
2022/04/30 04:40:11;;;;;;;;;;;;;;;19.67;41.38;102862.53;7280951;19;153528;-55
2022/04/30 04:42:39;;;;;;;;;;;;;;;19.65;41.64;102864.75;7278276;19;154147;-53
2022/04/30 04:45:07;;;;;;;;;;;;;;;19.66;41.17;102860.84;7288215;19;151816;-55
2022/04/30 04:47:35;;;;;;;;;;;;;;;19.62;41.44;102860.50;7278832;19;153969;-55
2022/04/30 04:50:03;;;;;;;;;;;;;;;19.61;41.33;102856.00;7279496;19;151568;-54
2022/04/30 04:52:30;;;;;;;;;;;;;;;19.60;41.14;102853.44;7282755;19;153331;-55
2022/04/30 04:54:58;;;;;;;;;;;;;;;19.59;41.56;102866.59;7282257;19;153404;-54
2022/04/30 04:57:25;;;;;;;;;;;;;;;19.58;41.52;102853.69;7283044;19;151719;-55
2022/04/30 04:59:53;;;;;;;;;;;;;;;19.57;41.42;102852.00;7281786;19;152700;-54
2022/04/30 05:02:20;;;;;;;;;;;;;;;19.56;41.20;102861.53;7278655;19;153739;-54
2022/04/30 05:04:47;;;;;;;;;;;;;;;19.53;41.25;102857.25;7282772;19;151664;-56
2022/04/30 05:07:14;;;;;;;;;;;;;;;19.53;41.56;102854.44;7287365;19;153951;-55
2022/04/30 05:09:41;;;;;;;;;;;;;;;19.53;41.07;102843.25;7281257;19;152551;-55
2022/04/30 05:12:08;;;;;;;;;;;;;;;19.53;41.10;102859.25;7281741;19;154363;-54
2022/04/30 05:14:35;;;;;;;;;;;;;;;19.50;41.48;102849.38;7280892;19;153381;-55
2022/04/30 05:17:02;;;;;;;;;;;;;;;19.49;41.26;102849.59;7282550;19;152060;-59
2022/04/30 05:19:34;;;;;;;;;;;;;;;19.48;41.42;102850.75;7279060;19;151802;-54
2022/04/30 05:22:01;;;;;;;;;;;;;;;19.45;41.12;102849.28;7278959;19;153798;-55
2022/04/30 05:24:28;;;;;;;;;;;;;;;19.45;41.51;102860.50;7281120;19;151542;-56
2022/04/30 05:26:55;;;;;;;;;;;;;;;19.45;41.28;102856.84;7279481;19;153296;-54
2022/04/30 05:29:22;;;;;;;;;;;;;;;19.44;41.40;102853.19;7286670;19;152405;-55
2022/04/30 05:31:49;;;;;;;;;;;;;;;19.42;41.30;102855.38;7281177;19;153347;-54
2022/04/30 05:34:17;;;;;;;;;;;;;;;19.43;41.40;102861.81;7279916;19;153345;-55
2022/04/30 05:36:44;;;;;;;;;;;;;;;19.41;41.49;102858.41;7281219;19;152045;-55
2022/04/30 05:39:11;;;;;;;;;;;;;;;19.40;41.49;102854.75;7277475;19;152011;-55
2022/04/30 05:41:38;;;;;;;;;;;;;;;19.40;41.26;102862.31;7277310;19;154024;-54
2022/04/30 05:44:04;;;;;;;;;;;;;;;19.39;41.49;102863.44;7281777;19;151606;-54
2022/04/30 05:46:31;;;;;;;;;;;;;;;19.39;41.52;102863.44;7279673;19;153178;-54
2022/04/30 05:48:58;;;;;;;;;;;;;;;19.38;41.36;102858.94;7281300;19;153513;-54
2022/04/30 05:51:25;;;;;;;;;;;;;;;19.37;41.70;102862.84;7288889;19;151811;-53
2022/04/30 05:53:53;;;;;;;;;;;;;;;19.35;41.29;102859.44;7279156;19;153231;-56
2022/04/30 05:56:20;;;;;;;;;;;;;;;19.33;41.34;102864.44;7280761;19;151613;-55
2022/04/30 05:58:47;;;;;;;;;;;;;;;19.32;41.41;102865.53;7280216;19;152892;-55
2022/04/30 06:01:14;;;;;;;;;;;;;;;19.30;41.71;102863.03;7278516;19;153461;-55
2022/04/30 06:03:40;;;;;;;;;;;;;;;19.31;41.54;102866.66;7279831;19;152068;-56
2022/04/30 06:06:07;;;;;;;;;;;;;;;19.31;41.78;102869.44;7281449;19;153006;-54
2022/04/30 06:08:34;;;;;;;;;;;;;;;19.35;41.60;102871.50;7277883;19;154131;-55
2022/04/30 06:11:01;;;;;;;;;;;;;;;19.40;41.69;102867.91;7288687;19;152057;-56
2022/04/30 06:13:28;;;;;;;;;;;;;;;19.43;41.88;102873.94;7276073;19;154188;-55
2022/04/30 06:15:55;;;;;;;;;;;;;;;19.48;41.66;102870.38;7276970;19;152052;-55
2022/04/30 06:18:21;;;;;;;;;;;;;;;19.54;42.08;102872.13;7279818;19;153396;-55
2022/04/30 06:20:48;;;;;;;;;;;;;;;19.59;41.84;102866.59;7276733;19;153961;-54
2022/04/30 06:23:16;;;;;;;;;;;;;;;19.66;42.08;102870.09;7276664;19;151708;-56
2022/04/30 06:25:43;;;;;;;;;;;;;;;19.75;42.64;102874.19;7280033;19;153156;-55
2022/04/30 06:28:12;;;;;;;;;;;;;;;19.82;42.56;102863.63;7277999;19;154181;-56
2022/04/30 06:30:39;;;;;;;;;;;;;;;19.90;42.42;102868.78;7277259;19;152050;-56
2022/04/30 06:33:06;;;;;;;;;;;;;;;19.99;42.35;102872.00;7284241;19;153624;-55
2022/04/30 06:35:33;;;;;;;;;;;;;;;20.10;42.24;102868.25;7278353;19;151548;-56
2022/04/30 06:38:00;;;;;;;;;;;;;;;20.17;42.30;102871.69;7277489;19;152636;-56
2022/04/30 06:40:28;;;;;;;;;;;;;;;20.24;41.75;102866.75;7277736;19;153272;-56
2022/04/30 06:42:55;;;;;;;;;;;;;;;20.31;41.93;102870.25;7276289;19;151823;-56
2022/04/30 06:45:21;;;;;;;;;;;;;;;20.40;41.46;102870.63;7276961;19;152592;-56
2022/04/30 06:47:48;;;;;;;;;;;;;;;20.48;41.75;102873.00;7275806;19;153121;-56
2022/04/30 06:50:15;;;;;;;;;;;;;;;20.59;41.52;102866.41;7279368;19;151837;-56
2022/04/30 06:57:54;;;;;;;;;;;;;;;20.74;41.08;102863.78;7285523;19;152614;-56
2022/04/30 07:01:28;;;;;;;;;;;;;;;20.81;41.26;102867.22;7281898;19;154263;-57
2022/04/30 07:03:08;;;;;;;;;;;;;;;20.89;41.08;102868.72;7281071;19;151815;-56
2022/04/30 07:05:36;;;;;;;;;;;;;;;20.96;40.46;102865.69;7281846;19;152942;-56
2022/04/30 07:08:03;;;;;;;;;;;;;;;21.01;40.45;102861.00;7282186;19;153450;-56
2022/04/30 07:10:30;;;;;;;;;;;;;;;21.08;40.82;102857.94;7284803;19;152377;-55
2022/04/30 07:12:57;;;;;;;;;;;;;;;21.14;40.47;102859.72;7282078;19;152678;-55
2022/04/30 07:15:30;;;;;;;;;;;;;;;21.20;40.49;102861.50;7278427;19;154382;-55
2022/04/30 07:17:57;;;;;;;;;;;;;;;21.24;40.34;102852.25;7292021;19;152138;-56
2022/04/30 07:20:24;;;;;;;;;;;;;;;21.30;40.44;102862.41;7280867;19;153346;-55
2022/04/30 07:22:51;;;;;;;;;;;;;;;21.36;40.49;102856.84;7281936;19;151793;-55
2022/04/30 07:25:19;;;;;;;;;;;;;;;21.40;40.33;102864.47;7286335;19;153035;-55
2022/04/30 07:27:45;;;;;;;;;;;;;;;21.43;40.18;102861.16;7281286;19;153935;-55
2022/04/30 07:30:13;;;;;;;;;;;;;;;21.46;40.22;102866.22;7282120;19;152239;-54
2022/04/30 07:32:40;;;;;;;;;;;;;;;21.50;39.91;102869.34;7280753;19;153965;-55
2022/04/30 07:35:07;;;;;;;;;;;;;;;21.50;40.01;102867.38;7281658;19;154106;-53
2022/04/30 07:37:34;;;;;;;;;;;;;;;21.52;40.09;102867.97;7282223;19;151914;-54
2022/04/30 07:40:01;;;;;;;;;;;;;;;21.54;40.13;102867.69;7289056;19;151676;-56
2022/04/30 07:42:28;;;;;;;;;;;;;;;21.55;39.77;102872.19;7281121;19;152099;-54
2022/04/30 07:44:59;;;;;;;;;;;;;;;21.55;39.81;102881.50;7282597;19;152812;-55
2022/04/30 07:47:26;;;;;;;;;;;;;;;21.57;39.63;102875.59;7281609;19;154194;-54
2022/04/30 07:49:58;;;;;;;;;;;;;;;21.58;39.79;102877.28;7280309;19;151767;-55
2022/04/30 07:52:27;;;;;;;;;;;;;;;21.58;39.98;102886.56;7284489;19;153045;-54
2022/04/30 07:54:54;;;;;;;;;;;;;;;21.58;39.83;102878.13;7280302;19;153940;-55
2022/04/30 07:57:21;;;;;;;;;;;;;;;21.59;39.53;102882.66;7280646;19;151878;-56
2022/04/30 07:59:48;;;;;;;;;;;;;;;21.58;39.52;102872.50;7281210;19;152708;-55
2022/04/30 08:02:15;;;;;;;;;;;;;;;21.58;39.68;102872.50;7285169;19;152457;-56
2022/04/30 08:04:42;;;;;;;;;;;;;;;21.58;39.92;102874.47;7280981;19;152966;-55
2022/04/30 08:07:10;;;;;;;;;;;;;;;21.59;39.92;102871.41;7280620;19;156905;-55
2022/04/30 08:09:37;;;;;;;;;;;;;;;21.59;39.70;102877.03;7281176;19;152054;-55
2022/04/30 08:12:04;;;;;;;;;;;;;;;21.56;39.61;102869.13;7281720;19;152967;-55
2022/04/30 08:14:32;;;;;;;;;;;;;;;21.58;39.84;102863.22;7280723;19;155799;-56
2022/04/30 08:16:58;;;;;;;;;;;;;;;21.55;40.32;102870.25;7282634;19;151597;-54
2022/04/30 08:19:26;;;;;;;;;;;;;;;21.55;40.04;102856.19;7283877;19;152033;-56
2022/04/30 08:21:52;;;;;;;;;;;;;;;21.54;39.95;102862.91;7287626;19;153726;-54
2022/04/30 08:24:39;;;;;;;;;;;;;;;21.55;39.99;102860.94;7281003;19;155332;-55
2022/04/30 08:27:07;;;;;;;;;;;;;;;21.52;40.22;102859.53;7279095;19;153568;-55
2022/04/30 08:29:33;;;;;;;;;;;;;;;21.54;39.97;102860.09;7283210;19;151696;-56
2022/04/30 08:32:00;;;;;;;;;;;;;;;21.54;39.84;102862.06;7280028;19;153605;-56
2022/04/30 08:34:27;;;;;;;;;;;;;;;21.55;40.16;102866.56;7280521;19;153351;-56
2022/04/30 08:36:54;;;;;;;;;;;;;;;21.59;39.70;102862.09;7280179;19;151800;-55
2022/04/30 08:39:21;;;;;;;;;;;;;;;21.62;39.78;102864.41;7281840;19;152249;-55
2022/04/30 08:41:48;;;;;;;;;;;;;;;21.66;39.80;102866.41;7279241;19;154485;-56
2022/04/30 08:44:15;;;;;;;;;;;;;;;21.68;39.44;102861.34;7288212;19;152127;-56
2022/04/30 08:46:43;;;;;;;;;;;;;;;21.72;39.40;102865.31;7283010;19;153632;-56
2022/04/30 08:49:10;;;;;;;;;;;;;;;21.77;39.47;102869.28;7281436;19;152097;-55
2022/04/30 08:51:38;;;;;;;;;;;;;;;21.80;39.13;102861.16;7280732;19;151742;-56
2022/04/30 08:54:05;;;;;;;;;;;;;;;21.84;39.04;102867.94;7281367;19;154223;-56
2022/04/30 08:56:34;;;;;;;;;;;;;;;21.88;39.13;102863.47;7280645;19;151844;-56
2022/04/30 08:59:04;;;;;;;;;;;;;;;21.93;39.21;102859.88;7280963;19;155033;-55
2022/04/30 09:01:43;;;;;;;;;;;;;;;21.97;38.97;102861.00;7278711;19;154306;-54
2022/04/30 09:04:10;;;;;;;;;;;;;;;22.01;39.10;102859.34;7280925;19;151961;-56
2022/04/30 09:06:45;;;;;;;;;;;;;;;22.06;38.55;102856.56;7289954;19;153004;-54
2022/04/30 09:09:21;;;;;;;;;;;;;;;22.10;38.68;102855.75;7281437;19;151958;-54
2022/04/30 09:11:48;;;;;;;;;;;;;;;22.15;38.75;102860.56;7279958;19;153939;-56
2022/04/30 09:14:22;;;;;;;;;;;;;;;22.18;38.53;102858.03;7277979;19;153701;-56
2022/04/30 09:16:50;;;;;;;;;;;;;;;22.23;38.39;102862.84;7282755;19;151987;-54
2022/04/30 09:19:17;;;;;;;;;;;;;;;22.28;38.54;102864.84;7279432;19;153496;-55
2022/04/30 09:21:48;;;;;;;;;;;;;;;22.31;38.49;102861.47;7279005;19;153514;-54
2022/04/30 09:24:15;;;;;;;;;;;;;;;22.34;38.00;102853.34;7277052;19;151543;-56
2022/04/30 09:26:43;;;;;;;;;;;;;;;22.36;38.22;102839.81;7259430;19;152291;-54
2022/04/30 09:29:20;;;;;;;;;;;;;;;22.38;37.74;102845.19;7277702;19;152727;-55
2022/04/30 09:31:49;;;;;;;;;;;;;;;22.39;37.95;102847.75;7278415;19;152841;-55
2022/04/30 09:39:33;;;;;;;;;;;;;;;22.45;37.77;102843.81;7280658;19;153284;-54
2022/04/30 09:42:00;;;;;;;;;;;;;;;22.49;37.88;102841.28;7278860;19;154070;-56
2022/04/30 09:44:28;;;;;;;;;;;;;;;22.49;37.47;102830.84;7276613;19;152035;-55
2022/04/30 09:46:55;;;;;;;;;;;;;;;22.52;37.76;102832.28;7273149;19;153606;-55
2022/04/30 09:54:36;;;;;;;;;;;;;;;22.61;37.40;102828.66;7278276;19;156342;-54
2022/04/30 09:57:05;;;;;;;;;;;;;;;22.61;37.33;102828.66;7276993;19;151777;-54
2022/04/30 09:59:34;;;;;;;;;;;;;;;22.64;37.45;102827.25;7277376;19;152673;-54
2022/04/30 10:02:03;;;;;;;;;;;;;;;22.65;37.21;102825.28;7280216;19;153554;-55
2022/04/30 10:04:30;;;;;;;;;;;;;;;22.67;37.36;102826.69;7273899;19;151860;-56
2022/04/30 10:07:00;;;;;;;;;;;;;;;22.68;36.92;102817.13;7280888;19;152875;-56
2022/04/30 10:09:40;;;;;;;;;;;;;;;22.70;37.37;102812.09;7276830;19;153366;-53
2022/04/30 10:12:11;;;;;;;;;;;;;;;22.70;37.21;102798.00;7280325;19;151500;-55
2022/04/30 10:14:44;;;;;;;;;;;;;;;22.62;36.17;102802.16;7282616;19;154194;-55
2022/04/30 10:17:13;;;;;;;;;;;;;;;22.59;34.72;102801.88;7273056;19;152316;-57
2022/04/30 10:19:41;;;;;;;;;;;;;;;22.47;33.99;102796.50;7275629;19;153312;-57
2022/04/30 10:22:12;;;;;;;;;;;;;;;22.43;33.44;102792.53;7276106;19;155012;-55
2022/04/30 10:24:43;;;;;;;;;;;;;;;22.39;34.34;102793.38;7274320;19;152061;-56
2022/04/30 10:27:10;;;;;;;;;;;;;;;22.41;34.70;102793.94;7283485;19;152972;-56
2022/04/30 10:29:38;;;;;;;;;;;;;;;22.41;35.11;102785.47;7265593;19;153874;-56
2022/04/30 10:32:06;;;;;;;;;;;;;;;22.40;35.12;102787.44;7277554;19;153200;-55
2022/04/30 10:34:33;;;;;;;;;;;;;;;22.42;35.19;102784.34;7288405;19;153849;-58
2022/04/30 10:37:01;;;;;;;;;;;;;;;22.40;35.64;102775.31;7282285;19;151930;-57
2022/04/30 10:39:28;;;;;;;;;;;;;;;22.41;35.13;102775.06;7280935;19;154141;-57
2022/04/30 10:41:57;;;;;;;;;;;;;;;22.41;35.12;102772.25;7281313;19;153765;-56
2022/04/30 10:44:27;;;;;;;;;;;;;;;22.48;35.57;102767.22;7282037;19;151696;-54
2022/04/30 10:46:54;;;;;;;;;;;;;;;22.50;35.91;102767.75;7282699;19;153687;-56
2022/04/30 10:49:21;;;;;;;;;;;;;;;22.53;36.04;102766.38;7283618;19;155513;-56
2022/04/30 10:51:54;;;;;;;;;;;;;;;22.53;35.80;102767.19;7282382;19;151860;-55
2022/04/30 10:54:22;;;;;;;;;;;;;;;22.54;35.71;102749.19;7282577;19;153572;-56
2022/04/30 10:56:59;;;;;;;;;;;;;;;22.54;36.06;102742.69;7289470;19;152845;-54
2022/04/30 10:59:28;;;;;;;;;;;;;;;22.55;36.13;102756.50;7284090;19;152841;-54
2022/04/30 11:01:55;;;;;;;;;;;;;;;22.56;35.78;102749.75;7282378;19;153792;-55
2022/04/30 11:04:23;;;;;;;;;;;;;;;22.59;36.15;102752.00;7279592;19;151778;-55
2022/04/30 11:06:51;;;;;;;;;;;;;;;22.59;36.24;102737.91;7282856;19;152985;-55
2022/04/30 11:09:20;;;;;;;;;;;;;;;22.59;35.98;102739.88;7281450;19;153912;-56
2022/04/30 11:11:47;;;;;;;;;;;;;;;22.58;35.97;102724.94;7282897;19;151594;-56
2022/04/30 11:14:16;;;;;;;;;;;;;;;22.59;35.81;102726.66;7280590;19;152777;-55
2022/04/30 11:16:45;;;;;;;;;;;;;;;22.58;36.06;102727.78;7283585;19;154253;-55
2022/04/30 11:19:13;;;;;;;;;;;;;;;22.60;36.06;102719.03;7289636;19;151735;-56
2022/04/30 11:21:42;;;;;;;;;;;;;;;22.59;35.92;102721.00;7278847;19;154287;-55
2022/04/30 11:24:09;;;;;;;;;;;;;;;22.59;35.88;102723.84;7279741;19;151839;-56
2022/04/30 11:26:37;;;;;;;;;;;;;;;22.58;36.40;102713.69;7277850;19;153540;-55
2022/04/30 11:29:07;;;;;;;;;;;;;;;22.56;36.24;102717.91;7278295;19;153317;-54
2022/04/30 11:31:34;;;;;;;;;;;;;;;22.58;36.03;102715.66;7278176;19;151885;-54
2022/04/30 11:34:11;;;;;;;;;;;;;;;22.57;36.05;102703.56;7265606;19;152701;-56
2022/04/30 11:36:40;;;;;;;;;;;;;;;22.56;36.27;102707.50;7271165;19;155555;-56
2022/04/30 11:39:09;;;;;;;;;;;;;;;22.54;36.31;102691.97;7272805;19;152360;-54
2022/04/30 11:41:37;;;;;;;;;;;;;;;22.54;36.45;102691.97;7289405;19;153360;-56
2022/04/30 11:44:04;;;;;;;;;;;;;;;22.53;36.12;102691.13;7277684;19;152328;-54
2022/04/30 11:46:31;;;;;;;;;;;;;;;22.56;36.36;102689.75;7275277;19;153915;-57
2022/04/30 11:48:58;;;;;;;;;;;;;;;22.51;36.31;102682.13;7277266;19;154356;-56
2022/04/30 11:51:26;;;;;;;;;;;;;;;22.56;36.55;102684.09;7284037;19;151770;-57
2022/04/30 11:53:53;;;;;;;;;;;;;;;22.49;35.61;102675.06;7281370;19;152648;-56
2022/04/30 11:56:25;;;;;;;;;;;;;;;22.43;35.66;102671.44;7280049;19;153492;-57
2022/04/30 11:58:53;;;;;;;;;;;;;;;22.41;35.69;102668.03;7281024;19;152061;-56
2022/04/30 12:01:21;;;;;;;;;;;;;;;22.36;35.79;102667.16;7281399;19;152943;-57
2022/04/30 12:04:08;;;;;;;;;;;;;;;22.33;35.72;102660.13;7282294;19;153783;-57
2022/04/30 12:06:37;;;;;;;;;;;;;;;22.31;36.40;102658.72;7279833;19;152401;-58
2022/04/30 12:09:13;;;;;;;;;;;;;;;22.30;36.30;102655.06;7279835;19;153344;-56
2022/04/30 12:11:41;;;;;;;;;;;;;;;22.28;35.97;102654.50;7277966;19;152444;-54
2022/04/30 12:14:08;;;;;;;;;;;;;;;22.26;35.94;102650.28;7277864;19;153498;-56
2022/04/30 12:16:36;;;;;;;;;;;;;;;22.23;36.10;102651.66;7276222;19;152464;-56
2022/04/30 12:27:06;;;;;;;;;;;;;;;22.18;36.19;102643.19;7287572;19;152395;-56
2022/04/30 12:29:33;;;;;;;;;;;;;;;22.19;35.86;102642.09;7277380;19;154501;-55
2022/04/30 12:32:03;;;;;;;;;;;;;;;22.13;36.01;102629.13;7279637;19;152764;-54
2022/04/30 12:34:35;;;;;;;;;;;;;;;22.12;35.96;102624.63;7277289;19;153215;-56
2022/04/30 12:37:03;;;;;;;;;;;;;;;22.10;35.88;102622.09;7275730;19;155134;-57
2022/04/30 12:39:30;;;;;;;;;;;;;;;22.11;36.28;102618.16;7243474;19;154674;-54
2022/04/30 12:41:58;;;;;;;;;;;;;;;22.07;36.16;102618.97;7271276;19;154753;-56
2022/04/30 12:44:25;;;;;;;;;;;;;;;22.09;35.85;102611.09;7275660;19;156252;-56
2022/04/30 12:46:52;;;;;;;;;;;;;;;22.11;36.39;102612.53;7286696;19;152422;-57
2022/04/30 12:49:19;;;;;;;;;;;;;;;22.09;36.04;102611.09;7273045;19;152661;-59
2022/04/30 12:51:49;;;;;;;;;;;;;;;22.08;36.30;102603.75;7278027;19;153247;-59
2022/04/30 12:54:16;;;;;;;;;;;;;;;22.05;36.16;102598.69;7278096;19;152140;-60
2022/04/30 12:56:45;;;;;;;;;;;;;;;22.05;35.87;102595.88;7276187;19;153691;-57
2022/04/30 12:59:13;;;;;;;;;;;;;;;22.04;35.83;102592.22;7277805;19;151855;-57
2022/04/30 13:01:40;;;;;;;;;;;;;;;22.01;36.26;102589.13;7277131;19;152928;-59
2022/04/30 13:04:08;;;;;;;;;;;;;;;22.02;35.76;102585.19;7275512;19;151896;-58
2022/04/30 13:06:36;;;;;;;;;;;;;;;21.98;36.10;102582.09;7277541;19;152408;-61
2022/04/30 13:14:16;;;;;;;;;;;;;;;21.94;36.19;102575.31;7278422;19;152943;-60
2022/04/30 13:16:43;;;;;;;;;;;;;;;21.95;35.93;102573.34;7276470;19;153230;-61
2022/04/30 13:19:10;;;;;;;;;;;;;;;21.90;36.16;102559.22;7276986;19;152262;-59